createdAt,value
2018-11-22T12:16:12.369Z,35.53
2018-11-22T12:18:39.837Z,27.80
2018-11-22T12:21:07.407Z,29.83
2018-11-22T12:23:34.874Z,31.90
2018-11-22T12:26:02.328Z,27.87
2018-11-22T12:28:29.813Z,32.57
2018-11-22T12:30:57.298Z,35.10
2018-11-22T12:33:24.760Z,33.10
2018-11-22T12:35:52.221Z,29.77
2018-11-22T12:38:19.709Z,28.83
2018-11-22T12:40:47.971Z,32.80
2018-11-22T12:43:15.434Z,30.57
2018-11-22T12:45:43.003Z,32.50
2018-11-22T12:48:10.624Z,31.57
2018-11-22T12:50:38.091Z,27.60
2018-11-22T12:53:05.551Z,30.63
2018-11-22T12:55:33.022Z,30.93
2018-11-22T12:58:00.481Z,32.30
2018-11-22T13:00:27.957Z,30.00
2018-11-22T13:02:55.517Z,32.83
2018-11-22T13:05:22.977Z,31.67
2018-11-22T13:07:50.543Z,34.53
2018-11-22T13:10:17.996Z,31.97
2018-11-22T13:12:45.485Z,26.07
2018-11-22T13:15:12.953Z,31.57
2018-11-22T13:17:40.405Z,30.27
2018-11-22T13:20:08.169Z,31.57
2018-11-22T13:22:35.625Z,29.97
2018-11-22T13:25:04.000Z,29.07
2018-11-22T13:27:31.473Z,34.30
2018-11-22T13:29:58.993Z,30.90
2018-11-22T13:32:26.458Z,32.27
2018-11-22T13:34:53.935Z,34.43
2018-11-22T13:37:21.398Z,31.97
2018-11-22T13:39:48.867Z,29.50
2018-11-22T13:42:16.346Z,28.53
2018-11-22T13:44:43.911Z,35.43
2018-11-22T13:47:12.366Z,32.83
2018-11-22T13:49:39.816Z,33.17
2018-11-22T13:52:07.318Z,31.77
2018-11-22T13:54:34.789Z,36.57
2018-11-22T13:57:02.263Z,29.00
2018-11-22T13:59:30.505Z,32.63
2018-11-22T14:01:57.965Z,33.80
2018-11-22T14:04:25.416Z,32.27
2018-11-22T14:06:52.913Z,31.30
2018-11-22T14:09:20.378Z,37.10
2018-11-22T14:11:47.848Z,33.97
2018-11-22T14:14:15.394Z,33.27
2018-11-22T14:16:42.848Z,26.97
2018-11-22T14:19:10.322Z,29.63
2018-11-22T14:21:37.789Z,31.27
2018-11-22T14:24:05.263Z,31.17
2018-11-22T14:26:32.730Z,26.53
2018-11-22T14:29:00.990Z,32.10
2018-11-22T14:31:28.439Z,29.10
2018-11-22T14:33:56.075Z,32.77
2018-11-22T14:36:23.664Z,30.80
2018-11-22T14:38:51.136Z,29.60
2018-11-22T14:41:18.614Z,30.15
2018-11-22T14:43:47.576Z,29.87
2018-11-22T14:46:15.049Z,31.43
2018-11-22T14:48:42.632Z,26.73
2018-11-22T14:51:10.087Z,28.77
2018-11-22T14:53:37.561Z,30.27
2018-11-22T14:56:05.299Z,32.67
2018-11-22T14:58:32.545Z,29.07
2018-11-22T15:01:00.019Z,29.30
2018-11-22T15:03:27.488Z,28.67
2018-11-22T15:05:55.053Z,30.40
2018-11-22T15:08:22.627Z,32.37
2018-11-22T15:10:50.096Z,28.53
2018-11-22T15:13:18.336Z,30.10
2018-11-22T15:15:45.805Z,31.10
2018-11-22T15:18:13.252Z,31.67
2018-11-22T15:20:40.748Z,28.37
2018-11-22T15:23:08.212Z,29.93
2018-11-22T15:25:35.680Z,28.97
2018-11-22T15:28:04.653Z,30.33
2018-11-22T15:30:32.434Z,29.43
2018-11-22T15:32:59.996Z,27.83
2018-11-22T15:35:27.458Z,33.73
2018-11-22T15:37:55.030Z,30.77
2018-11-22T15:40:22.505Z,34.57
2018-11-22T15:42:50.731Z,30.77
2018-11-22T15:45:18.238Z,29.63
2018-11-22T15:47:45.691Z,32.40
2018-11-22T15:50:13.151Z,27.85
2018-11-22T15:52:40.611Z,29.57
2018-11-22T15:55:08.178Z,30.67
2018-11-22T15:57:35.642Z,28.43
2018-11-22T16:00:04.620Z,30.83
2018-11-22T16:02:32.091Z,33.60
2018-11-22T16:05:00.494Z,30.37
2018-11-22T16:07:27.981Z,30.83
2018-11-22T16:09:56.233Z,29.70
2018-11-22T16:12:23.698Z,27.27
2018-11-22T16:14:51.274Z,32.53
2018-11-22T16:17:19.506Z,32.20
2018-11-22T16:19:46.996Z,28.90
2018-11-22T16:22:14.686Z,30.88
2018-11-22T16:24:42.909Z,32.00
2018-11-22T16:27:10.406Z,33.50
2018-11-22T16:29:37.916Z,31.97
2018-11-22T16:32:05.380Z,33.07
2018-11-22T16:34:32.892Z,35.87
2018-11-22T16:37:00.361Z,31.80
2018-11-22T16:39:28.625Z,33.13
2018-11-22T16:41:56.101Z,35.53
2018-11-22T16:44:23.562Z,29.97
2018-11-22T16:46:51.105Z,34.30
2018-11-22T16:49:18.570Z,32.70
2018-11-22T16:51:46.140Z,28.77
2018-11-22T16:54:13.702Z,27.70
2018-11-22T16:56:41.177Z,30.13
2018-11-22T16:59:09.399Z,28.97
2018-11-22T17:01:36.875Z,31.33
2018-11-22T17:04:04.334Z,30.40
2018-11-22T17:06:31.792Z,27.17
2018-11-22T17:08:59.290Z,27.30
2018-11-22T17:11:26.849Z,32.17
2018-11-22T17:13:54.328Z,28.87
2018-11-22T17:16:21.793Z,31.97
2018-11-22T17:18:49.348Z,28.73
2018-11-22T17:21:16.905Z,27.93
2018-11-22T17:23:44.380Z,32.30
2018-11-22T17:26:11.844Z,30.57
2018-11-22T17:28:39.391Z,28.97
2018-11-22T17:31:06.846Z,28.43
2018-11-22T17:33:34.421Z,35.30
2018-11-22T17:36:02.912Z,29.13
2018-11-22T17:38:30.372Z,31.10
2018-11-22T17:40:57.843Z,28.37
2018-11-22T17:43:25.313Z,29.50
2018-11-22T17:45:52.854Z,28.33
2018-11-22T17:48:20.305Z,31.13
2018-11-22T17:50:47.773Z,33.73
2018-11-22T17:53:15.240Z,30.70
2018-11-22T17:55:42.722Z,32.80
2018-11-22T17:58:10.956Z,37.23
2018-11-22T18:00:38.422Z,28.63
2018-11-22T18:03:05.897Z,29.00
2018-11-22T18:05:33.370Z,24.43
2018-11-22T18:08:00.838Z,32.77
2018-11-22T18:10:28.319Z,30.03
2018-11-22T18:12:56.551Z,25.83
2018-11-22T18:15:24.021Z,27.43
2018-11-22T18:17:51.500Z,29.60
2018-11-22T18:20:18.977Z,25.07
2018-11-22T18:22:47.224Z,28.30
2018-11-22T18:25:14.765Z,27.73
2018-11-22T18:27:42.260Z,24.97
2018-11-22T18:30:09.742Z,24.53
2018-11-22T18:32:37.286Z,27.77
2018-11-22T18:35:04.859Z,30.47
2018-11-22T18:37:32.423Z,24.93
2018-11-22T18:39:59.883Z,28.17
2018-11-22T18:42:27.348Z,26.67
2018-11-22T18:44:54.832Z,27.40
2018-11-22T18:47:23.092Z,24.70
2018-11-22T18:49:50.562Z,27.47
2018-11-22T18:52:18.113Z,27.90
2018-11-22T18:54:46.390Z,30.60
2018-11-22T18:57:13.853Z,25.50
2018-11-22T18:59:41.366Z,24.10
2018-11-22T19:02:08.825Z,27.42
2018-11-22T19:04:36.296Z,28.43
2018-11-22T19:07:05.844Z,30.37
2018-11-22T19:09:33.297Z,26.20
2018-11-22T19:12:00.874Z,24.83
2018-11-22T19:14:28.322Z,24.63
2018-11-22T19:16:55.897Z,24.07
2018-11-22T19:19:23.369Z,22.77
2018-11-22T19:21:50.933Z,25.90
2018-11-22T19:24:18.392Z,24.20
2018-11-22T19:26:45.875Z,24.97
2018-11-22T19:29:14.094Z,27.30
2018-11-22T19:31:41.581Z,23.27
2018-11-22T19:34:09.056Z,26.53
2018-11-22T19:36:37.334Z,24.40
2018-11-22T19:39:05.555Z,21.17
2018-11-22T19:41:33.084Z,24.33
2018-11-22T19:44:00.541Z,24.80
2018-11-22T19:46:28.101Z,24.70
2018-11-22T19:48:56.343Z,23.57
2018-11-22T19:51:23.800Z,24.63
2018-11-22T19:53:51.265Z,24.13
2018-11-22T19:56:18.774Z,20.80
2018-11-22T19:58:46.243Z,24.50
2018-11-22T20:01:13.795Z,27.17
2018-11-22T20:03:41.260Z,25.23
2018-11-22T20:06:08.732Z,29.20
2018-11-22T20:08:36.961Z,21.30
2018-11-22T20:11:04.433Z,22.17
2018-11-22T20:13:31.931Z,26.47
2018-11-22T20:15:59.400Z,26.03
2018-11-22T20:18:26.863Z,21.97
2018-11-22T20:20:55.101Z,23.90
2018-11-22T20:23:22.682Z,23.43
2018-11-22T20:25:50.165Z,24.97
2018-11-22T20:28:18.388Z,23.50
2018-11-22T20:30:45.870Z,22.83
2018-11-22T20:33:13.325Z,24.83
2018-11-22T20:35:41.111Z,22.70
2018-11-22T20:38:08.685Z,24.17
2018-11-22T20:40:36.921Z,24.90
2018-11-22T20:43:04.733Z,24.17
2018-11-22T20:45:32.201Z,23.10
2018-11-22T20:48:00.474Z,25.20
2018-11-22T20:50:28.037Z,25.90
2018-11-22T20:52:55.501Z,22.93
2018-11-22T20:55:22.960Z,24.97
2018-11-22T20:57:51.203Z,22.43
2018-11-22T21:00:18.665Z,21.47
2018-11-22T21:02:46.164Z,20.60
2018-11-22T21:05:13.633Z,24.20
2018-11-22T21:07:41.886Z,20.87
2018-11-22T21:10:09.350Z,21.93
2018-11-22T21:12:36.826Z,24.10
2018-11-22T21:15:04.397Z,22.83
2018-11-22T21:17:31.964Z,24.60
2018-11-22T21:20:00.956Z,22.67
2018-11-22T21:22:28.428Z,23.00
2018-11-22T21:24:56.698Z,25.30
2018-11-22T21:27:24.264Z,23.40
2018-11-22T21:29:51.759Z,21.77
2018-11-22T21:32:20.006Z,20.03
2018-11-22T21:34:47.816Z,17.77
2018-11-22T21:37:16.152Z,23.27
2018-11-22T21:39:43.620Z,18.27
2018-11-22T21:42:11.096Z,23.17
2018-11-22T21:44:39.367Z,21.60
2018-11-22T21:47:06.835Z,22.90
2018-11-22T21:49:34.297Z,21.97
2018-11-22T21:52:01.755Z,19.63
2018-11-22T21:54:29.307Z,20.47
2018-11-22T21:56:56.897Z,19.93
2018-11-22T21:59:25.128Z,22.47
2018-11-22T22:01:52.594Z,21.57
2018-11-22T22:04:20.065Z,25.03
2018-11-22T22:06:47.537Z,23.83
2018-11-22T22:09:15.008Z,24.57
2018-11-22T22:11:42.476Z,21.80
2018-11-22T22:14:09.934Z,21.27
2018-11-22T22:16:37.593Z,21.13
2018-11-22T22:19:05.066Z,17.40
2018-11-22T22:21:32.546Z,18.33
2018-11-22T22:24:00.783Z,19.23
2018-11-22T22:26:28.263Z,20.40
2018-11-22T22:28:56.023Z,19.50
2018-11-22T22:31:23.479Z,18.03
2018-11-22T22:33:51.709Z,22.53
2018-11-22T22:36:19.190Z,20.77
2018-11-22T22:38:46.652Z,19.20
2018-11-22T22:41:14.116Z,21.80
2018-11-22T22:43:41.583Z,22.13
2018-11-22T22:46:09.053Z,21.53
2018-11-22T22:48:36.534Z,21.50
2018-11-22T22:51:03.992Z,19.70
2018-11-22T22:53:31.465Z,17.70
2018-11-22T22:55:58.918Z,15.83
2018-11-22T22:58:27.902Z,18.03
2018-11-22T23:00:55.378Z,19.70
2018-11-22T23:03:22.849Z,17.97
2018-11-22T23:05:51.818Z,17.53
2018-11-22T23:08:19.284Z,16.93
2018-11-22T23:10:46.768Z,21.50
2018-11-22T23:13:14.238Z,18.20
2018-11-22T23:15:41.783Z,17.80
2018-11-22T23:18:09.348Z,18.40
2018-11-22T23:20:36.974Z,18.80
2018-11-22T23:23:04.481Z,17.43
2018-11-22T23:25:31.933Z,18.07
2018-11-22T23:27:59.505Z,19.40
2018-11-22T23:30:28.476Z,17.13
2018-11-22T23:32:56.599Z,18.83
2018-11-22T23:35:24.209Z,21.07
2018-11-22T23:37:51.705Z,16.90
2018-11-22T23:40:19.183Z,16.17
2018-11-22T23:42:47.409Z,18.03
2018-11-22T23:45:14.908Z,18.73
2018-11-22T23:47:42.364Z,21.07
2018-11-22T23:50:09.939Z,17.70
2018-11-22T23:52:37.405Z,17.10
2018-11-22T23:55:05.636Z,19.67
2018-11-22T23:57:33.088Z,17.70
